Time,TemperatureF,DewpointF,PressureIn,WindDirection,WindDirectionDegrees,WindSpeedMPH,WindSpeedGustMPH,Humidity,HourlyPrecipIn,Conditions,Clouds,dailyrainin,SolarRadiationWatts/m^2,SoftwareType,DateUTC
2013-04-01 00:11:00,47.7,42.0,29.80,SE,145,12.0,14.0,81,0.01,,,0.00,0,weatherlink.com 1.10,2013-04-01 04:11:00,
2013-04-01 00:26:00,47.5,43.0,29.79,SE,132,8.0,16.0,83,0.01,,,0.00,0,weatherlink.com 1.10,2013-04-01 04:26:00,
2013-04-01 00:41:00,47.2,43.0,29.77,East,79,5.0,17.0,85,0.01,,,0.00,0,weatherlink.com 1.10,2013-04-01 04:41:00,
2013-04-01 01:11:00,47.1,44.0,29.74,ESE,111,8.0,17.0,87,0.00,,,0.00,0,weatherlink.com 1.10,2013-04-01 05:11:00,
2013-04-01 01:26:00,46.3,44.0,29.72,ESE,123,10.0,13.0,90,0.00,,,0.00,0,weatherlink.com 1.10,2013-04-01 05:26:00,
2013-04-01 01:41:00,46.3,44.0,29.70,ESE,107,7.0,16.0,91,0.01,,,0.01,0,weatherlink.com 1.10,2013-04-01 05:41:00,
2013-04-01 01:56:00,46.2,44.0,29.68,SE,140,4.0,16.0,92,0.01,,,0.01,0,weatherlink.com 1.10,2013-04-01 05:56:00,
2013-04-01 02:11:00,44.8,43.0,29.66,ESE,103,10.0,15.0,92,0.02,,,0.02,0,weatherlink.com 1.10,2013-04-01 06:11:00,
2013-04-01 02:26:00,44.5,43.0,29.65,ESE,123,10.0,14.0,94,0.02,,,0.02,0,weatherlink.com 1.10,2013-04-01 06:26:00,
2013-04-01 02:42:00,44.5,43.0,29.65,ESE,115,3.0,10.0,94,0.01,,,0.02,0,weatherlink.com 1.10,2013-04-01 06:42:00,
2013-04-01 02:56:00,44.7,43.0,29.64,East,90,2.0,7.0,94,0.01,,,0.02,0,weatherlink.com 1.10,2013-04-01 06:56:00,
2013-04-01 03:11:00,44.7,43.0,29.62,East,90,3.0,6.0,94,0.01,,,0.03,0,weatherlink.com 1.10,2013-04-01 07:11:00,
2013-04-01 03:27:00,44.7,43.0,29.62,NNE,31,2.0,3.0,95,0.01,,,0.03,0,weatherlink.com 1.10,2013-04-01 07:27:00,
2013-04-01 03:42:00,44.7,43.0,29.61,NNE,25,2.0,3.0,95,0.01,,,0.03,0,weatherlink.com 1.10,2013-04-01 07:42:00,
2013-04-01 03:57:00,44.6,43.0,29.62,NNW,334,2.0,4.0,95,0.01,,,0.03,0,weatherlink.com 1.10,2013-04-01 07:57:00,
2013-04-01 04:12:00,44.5,43.0,29.61,West,274,1.0,5.0,95,0.00,,,0.03,0,weatherlink.com 1.10,2013-04-01 08:12:00,
2013-04-01 04:27:00,44.6,43.0,29.61,NW,319,3.0,6.0,95,0.00,,,0.03,0,weatherlink.com 1.10,2013-04-01 08:27:00,
2013-04-01 04:42:00,44.5,43.0,29.62,West,281,2.0,6.0,95,0.00,,,0.03,0,weatherlink.com 1.10,2013-04-01 08:42:00,
2013-04-01 04:57:00,44.7,43.0,29.63,WNW,289,2.0,6.0,95,0.00,,,0.03,0,weatherlink.com 1.10,2013-04-01 08:57:00,
2013-04-01 05:12:00,44.8,44.0,29.63,WNW,285,5.0,8.0,95,0.00,,,0.03,0,weatherlink.com 1.10,2013-04-01 09:12:00,
2013-04-01 05:27:00,44.9,44.0,29.64,West,267,2.0,7.0,95,0.00,,,0.03,0,weatherlink.com 1.10,2013-04-01 09:27:00,
2013-04-01 05:42:00,45.0,44.0,29.64,WNW,289,6.0,9.0,95,0.00,,,0.03,0,weatherlink.com 1.10,2013-04-01 09:42:00,
2013-04-01 05:57:00,44.7,43.0,29.66,NW,309,8.0,11.0,94,0.00,,,0.03,0,weatherlink.com 1.10,2013-04-01 09:57:00,
2013-04-01 06:12:00,44.5,43.0,29.67,WNW,302,6.0,9.0,94,0.00,,,0.03,0,weatherlink.com 1.10,2013-04-01 10:12:00,
2013-04-01 06:27:00,44.1,43.0,29.67,NW,312,9.0,12.0,94,0.00,,,0.03,0,weatherlink.com 1.10,2013-04-01 10:27:00,
2013-04-01 06:42:00,44.0,42.0,29.68,NW,317,4.0,12.0,94,0.00,,,0.03,5,weatherlink.com 1.10,2013-04-01 10:42:00,
2013-04-01 06:57:00,43.9,42.0,29.68,NW,312,5.0,10.0,94,0.00,,,0.03,12,weatherlink.com 1.10,2013-04-01 10:57:00,
2013-04-01 07:12:00,43.9,42.0,29.68,NW,305,9.0,12.0,94,0.00,,,0.03,16,weatherlink.com 1.10,2013-04-01 11:12:00,
2013-04-01 07:27:00,43.9,42.0,29.68,NW,318,6.0,12.0,93,0.00,,,0.03,16,weatherlink.com 1.10,2013-04-01 11:27:00,
2013-04-01 07:42:00,43.9,42.0,29.69,WNW,300,4.0,14.0,92,0.00,,,0.03,58,weatherlink.com 1.10,2013-04-01 11:42:00,
2013-04-01 08:12:00,44.6,42.0,29.68,WNW,291,4.0,13.0,90,0.00,,,0.03,144,weatherlink.com 1.10,2013-04-01 12:12:00,
2013-04-01 08:27:00,45.0,42.0,29.68,WNW,298,8.0,12.0,89,0.00,,,0.03,185,weatherlink.com 1.10,2013-04-01 12:27:00,
2013-04-01 08:42:00,45.9,43.0,29.69,WNW,298,4.0,12.0,88,0.00,,,0.03,457,weatherlink.com 1.10,2013-04-01 12:42:00,
2013-04-01 08:57:00,46.6,42.0,29.69,WNW,292,10.0,13.0,85,0.00,,,0.03,160,weatherlink.com 1.10,2013-04-01 12:57:00,
2013-04-01 09:12:00,47.5,42.0,29.69,West,280,7.0,13.0,82,0.00,,,0.03,264,weatherlink.com 1.10,2013-04-01 13:12:00,
2013-04-01 09:27:00,48.1,42.0,29.69,WSW,248,4.0,11.0,80,0.00,,,0.03,176,weatherlink.com 1.10,2013-04-01 13:27:00,
2013-04-01 09:42:00,49.7,42.0,29.69,WNW,292,10.0,12.0,76,0.00,,,0.03,640,weatherlink.com 1.10,2013-04-01 13:42:00,
2013-04-01 09:57:00,50.4,42.0,29.69,West,280,6.0,14.0,72,0.00,,,0.03,329,weatherlink.com 1.10,2013-04-01 13:57:00,
2013-04-01 10:12:00,51.1,42.0,29.68,NW,316,10.0,12.0,71,0.00,,,0.03,738,weatherlink.com 1.10,2013-04-01 14:12:00,
2013-04-01 10:27:00,51.4,42.0,29.69,NNW,337,10.0,16.0,69,0.00,,,0.03,710,weatherlink.com 1.10,2013-04-01 14:27:00,
2013-04-01 10:42:00,52.1,42.0,29.69,WSW,256,11.0,12.0,69,0.00,,,0.03,747,weatherlink.com 1.10,2013-04-01 14:42:00,
2013-04-01 10:57:00,53.3,42.0,29.68,West,271,8.0,11.0,66,0.00,,,0.03,747,weatherlink.com 1.10,2013-04-01 14:57:00,
2013-04-01 11:12:00,53.5,42.0,29.67,NW,308,6.0,14.0,65,0.00,,,0.03,772,weatherlink.com 1.10,2013-04-01 15:12:00,
2013-04-01 11:27:00,54.6,42.0,29.66,WNW,284,9.0,16.0,62,0.00,,,0.03,795,weatherlink.com 1.10,2013-04-01 15:27:00,
2013-04-01 11:42:00,55.5,42.0,29.66,SW,236,5.0,14.0,60,0.00,,,0.03,810,weatherlink.com 1.10,2013-04-01 15:42:00,
2013-04-01 11:58:00,56.4,41.0,29.66,SSW,207,4.0,12.0,57,0.00,,,0.03,821,weatherlink.com 1.10,2013-04-01 15:58:00,
2013-04-01 12:13:00,57.1,41.0,29.65,SSW,194,3.0,12.0,56,0.00,,,0.03,828,weatherlink.com 1.10,2013-04-01 16:13:00,
2013-04-01 12:28:00,58.1,41.0,29.64,WSW,257,6.0,12.0,54,0.00,,,0.03,916,weatherlink.com 1.10,2013-04-01 16:28:00,
2013-04-01 12:43:00,59.4,42.0,29.64,WSW,240,7.0,12.0,53,0.00,,,0.03,858,weatherlink.com 1.10,2013-04-01 16:43:00,
2013-04-01 12:58:00,59.7,41.0,29.63,SW,232,10.0,13.0,51,0.00,,,0.03,888,weatherlink.com 1.10,2013-04-01 16:58:00,
2013-04-01 13:13:00,60.8,42.0,29.62,NNW,346,1.0,13.0,51,0.00,,,0.03,911,weatherlink.com 1.10,2013-04-01 17:13:00,
2013-04-01 13:28:00,60.9,41.0,29.61,South,186,5.0,20.0,49,0.00,,,0.03,285,weatherlink.com 1.10,2013-04-01 17:28:00,
2013-04-01 13:43:00,61.1,41.0,29.60,SW,235,8.0,19.0,47,0.00,,,0.03,309,weatherlink.com 1.10,2013-04-01 17:43:00,
2013-04-01 13:58:00,61.0,40.0,29.59,SW,223,4.0,12.0,47,0.00,,,0.03,141,weatherlink.com 1.10,2013-04-01 17:58:00,
2013-04-01 14:13:00,61.7,40.0,29.59,WSW,251,5.0,19.0,45,0.00,,,0.03,253,weatherlink.com 1.10,2013-04-01 18:13:00,
2013-04-01 14:28:00,61.8,43.0,29.58,SW,214,4.0,17.0,50,0.00,,,0.03,355,weatherlink.com 1.10,2013-04-01 18:28:00,
2013-04-01 14:43:00,62.3,44.0,29.58,SW,218,9.0,14.0,51,0.00,,,0.03,343,weatherlink.com 1.10,2013-04-01 18:43:00,
2013-04-01 14:58:00,61.4,44.0,29.57,SW,221,6.0,15.0,53,0.00,,,0.03,236,weatherlink.com 1.10,2013-04-01 18:58:00,
2013-04-01 15:13:00,60.2,45.0,29.57,SSW,194,4.0,17.0,57,0.00,,,0.03,128,weatherlink.com 1.10,2013-04-01 19:13:00,
2013-04-01 15:28:00,59.6,45.0,29.56,WSW,248,6.0,13.0,59,0.00,,,0.03,25,weatherlink.com 1.10,2013-04-01 19:28:00,
2013-04-01 15:43:00,57.6,46.0,29.58,SW,224,9.0,26.0,65,0.02,,,0.05,120,weatherlink.com 1.10,2013-04-01 19:43:00,
2013-04-01 15:58:00,56.2,47.0,29.57,WNW,303,3.0,12.0,71,0.02,,,0.05,323,weatherlink.com 1.10,2013-04-01 19:58:00,
2013-04-01 16:13:00,57.2,47.0,29.57,WNW,302,5.0,11.0,69,0.02,,,0.05,95,weatherlink.com 1.10,2013-04-01 20:13:00,
2013-04-01 16:28:00,53.0,43.0,29.59,North,355,10.0,21.0,68,0.03,,,0.06,60,weatherlink.com 1.10,2013-04-01 20:28:00,
2013-04-01 16:43:00,50.9,43.0,29.62,West,269,19.0,26.0,74,0.01,,,0.06,9,weatherlink.com 1.10,2013-04-01 20:43:00,
2013-04-01 16:58:00,48.1,43.0,29.63,WNW,292,7.0,21.0,81,0.07,,,0.12,19,weatherlink.com 1.10,2013-04-01 20:58:00,
2013-04-01 17:13:00,48.1,43.0,29.64,WNW,296,7.0,18.0,82,0.08,,,0.13,25,weatherlink.com 1.10,2013-04-01 21:13:00,
2013-04-01 17:28:00,48.1,43.0,29.65,WNW,286,4.0,12.0,82,0.07,,,0.13,90,weatherlink.com 1.10,2013-04-01 21:28:00,
2013-04-01 17:43:00,48.0,39.0,29.67,West,271,7.0,22.0,72,0.07,,,0.13,171,weatherlink.com 1.10,2013-04-01 21:43:00,
2013-04-01 17:58:00,47.9,37.0,29.68,WNW,292,6.0,24.0,65,0.02,,,0.14,70,weatherlink.com 1.10,2013-04-01 21:58:00,
2013-04-01 18:13:00,47.2,33.0,29.70,WNW,302,13.0,26.0,58,0.01,,,0.14,149,weatherlink.com 1.10,2013-04-01 22:13:00,
2013-04-01 18:28:00,46.5,32.0,29.71,WNW,289,9.0,23.0,57,0.01,,,0.14,72,weatherlink.com 1.10,2013-04-01 22:28:00,
2013-04-01 18:43:00,45.7,30.0,29.71,NW,321,10.0,19.0,55,0.01,,,0.14,35,weatherlink.com 1.10,2013-04-01 22:43:00,
2013-04-01 18:58:00,45.2,30.0,29.72,NNW,328,9.0,19.0,55,0.00,,,0.14,11,weatherlink.com 1.10,2013-04-01 22:58:00,
2013-04-01 19:13:00,44.6,30.0,29.72,WNW,293,7.0,17.0,56,0.00,,,0.14,0,weatherlink.com 1.10,2013-04-01 23:13:00,
2013-04-01 19:28:00,44.3,29.0,29.73,WNW,293,10.0,14.0,55,0.00,,,0.14,0,weatherlink.com 1.10,2013-04-01 23:28:00,
2013-04-01 19:43:00,43.6,26.0,29.74,NW,312,10.0,23.0,51,0.00,,,0.14,0,weatherlink.com 1.10,2013-04-01 23:43:00,
2013-04-01 19:58:00,43.3,26.0,29.75,WNW,284,9.0,22.0,51,0.00,,,0.14,0,weatherlink.com 1.10,2013-04-01 23:58:00,
2013-04-01 20:13:00,43.0,25.0,29.75,NW,309,10.0,17.0,50,0.00,,,0.14,0,weatherlink.com 1.10,2013-04-02 00:13:00,
2013-04-01 20:28:00,42.7,23.0,29.77,WNW,300,15.0,19.0,46,0.00,,,0.14,0,weatherlink.com 1.10,2013-04-02 00:28:00,
2013-04-01 20:43:00,42.2,19.0,29.77,NW,309,14.0,19.0,40,0.00,,,0.14,0,weatherlink.com 1.10,2013-04-02 00:43:00,
2013-04-01 20:58:00,41.7,19.0,29.79,West,278,8.0,22.0,40,0.00,,,0.14,0,weatherlink.com 1.10,2013-04-02 00:58:00,
2013-04-01 21:14:00,41.1,18.0,29.80,NW,309,14.0,17.0,40,0.00,,,0.14,0,weatherlink.com 1.10,2013-04-02 01:14:00,
2013-04-01 21:29:00,40.6,17.0,29.80,NW,320,12.0,21.0,39,0.00,,,0.14,0,weatherlink.com 1.10,2013-04-02 01:29:00,
2013-04-01 21:44:00,40.1,17.0,29.80,NW,313,6.0,17.0,39,0.00,,,0.14,0,weatherlink.com 1.10,2013-04-02 01:44:00,
2013-04-01 21:59:00,39.8,16.0,29.81,NW,319,8.0,18.0,38,0.00,,,0.14,0,weatherlink.com 1.10,2013-04-02 01:59:00,
2013-04-01 22:14:00,39.4,13.0,29.82,NNW,341,11.0,26.0,34,0.00,,,0.14,0,weatherlink.com 1.10,2013-04-02 02:14:00,
2013-04-01 22:29:00,39.1,12.0,29.82,NNW,339,7.0,19.0,33,0.00,,,0.14,0,weatherlink.com 1.10,2013-04-02 02:29:00,
2013-04-01 22:43:00,38.8,12.0,29.82,North,349,10.0,20.0,33,0.00,,,0.14,0,weatherlink.com 1.10,2013-04-02 02:43:00,
2013-04-01 22:59:00,38.4,12.0,29.84,NNW,337,9.0,22.0,34,0.00,,,0.14,0,weatherlink.com 1.10,2013-04-02 02:59:00,
2013-04-01 23:14:00,38.0,12.0,29.84,NW,323,10.0,14.0,35,0.00,,,0.14,0,weatherlink.com 1.10,2013-04-02 03:14:00,
2013-04-01 23:29:00,37.4,13.0,29.85,NW,309,15.0,16.0,36,0.00,,,0.14,0,weatherlink.com 1.10,2013-04-02 03:29:00,
2013-04-01 23:43:00,37.0,13.0,29.85,NW,308,12.0,21.0,37,0.00,,,0.14,0,weatherlink.com 1.10,2013-04-02 03:43:00,
2013-04-01 23:59:00,36.6,13.0,29.86,NW,309,15.0,22.0,38,0.00,,,0.00,0,weatherlink.com 1.10,2013-04-02 03:59:00,